createdAt,value
2024-03-19T00:01:12.085Z,3.07
2024-03-19T00:03:48.783Z,2.99
2024-03-19T00:06:19.165Z,2.89
2024-03-19T00:08:49.565Z,2.85
2024-03-19T00:11:20.068Z,2.85
2024-03-19T00:13:50.386Z,2.83
2024-03-19T00:16:21.036Z,2.80
2024-03-19T00:18:51.512Z,2.76
2024-03-19T00:21:22.236Z,2.71
2024-03-19T00:23:53.049Z,2.67
2024-03-19T00:26:23.491Z,2.64
2024-03-19T00:28:54.156Z,2.60
2024-03-19T00:31:24.715Z,2.59
2024-03-19T00:33:55.152Z,2.60
2024-03-19T00:36:25.586Z,2.64
2024-03-19T00:38:55.994Z,2.61
2024-03-19T00:41:26.293Z,2.58
2024-03-19T00:43:56.725Z,2.55
2024-03-19T00:46:27.163Z,2.52
2024-03-19T00:48:57.576Z,2.48
2024-03-19T00:51:28.528Z,2.46
2024-03-19T00:53:58.962Z,2.42
2024-03-19T00:56:29.479Z,2.40
2024-03-19T00:58:59.823Z,2.41
2024-03-19T01:01:30.210Z,2.41
2024-03-19T01:04:00.703Z,2.37
2024-03-19T01:06:31.063Z,2.35
2024-03-19T01:09:01.567Z,2.37
2024-03-19T01:11:32.226Z,2.38
2024-03-19T01:14:02.778Z,2.36
2024-03-19T01:16:33.351Z,2.34
2024-03-19T01:19:03.774Z,2.32
2024-03-19T01:21:34.205Z,2.33
2024-03-19T01:24:05.496Z,2.32
2024-03-19T01:26:36.063Z,2.33
2024-03-19T01:29:06.377Z,2.36
2024-03-19T01:31:37.320Z,2.36
2024-03-19T01:34:07.901Z,2.37
2024-03-19T01:36:38.189Z,2.40
2024-03-19T01:39:08.587Z,2.43
2024-03-19T01:41:39.794Z,2.42
2024-03-19T01:44:15.689Z,2.38
2024-03-19T01:46:45.970Z,2.35
2024-03-19T01:49:17.162Z,2.34
2024-03-19T01:51:49.122Z,2.29
2024-03-19T01:54:20.623Z,2.28
2024-03-19T01:56:51.134Z,2.31
2024-03-19T01:59:21.791Z,2.32
2024-03-19T02:01:52.317Z,2.29
2024-03-19T02:04:22.994Z,2.27
2024-03-19T02:06:53.373Z,2.22
2024-03-19T02:09:23.705Z,2.18
2024-03-19T02:11:54.115Z,2.17
2024-03-19T02:14:24.714Z,2.16
2024-03-19T02:16:55.295Z,2.13
2024-03-19T02:19:25.714Z,2.14
2024-03-19T02:21:56.306Z,2.15
2024-03-19T02:24:26.815Z,2.10
2024-03-19T02:26:57.234Z,2.10
2024-03-19T02:29:27.641Z,2.13
2024-03-19T02:31:57.867Z,2.16
2024-03-19T02:34:28.445Z,2.24
2024-03-19T02:36:59.209Z,2.32
2024-03-19T02:39:29.819Z,2.39
2024-03-19T02:42:00.129Z,2.43
2024-03-19T02:44:30.992Z,2.39
2024-03-19T02:47:01.648Z,2.35
2024-03-19T02:49:31.016Z,2.33
2024-03-19T02:52:01.519Z,2.32
2024-03-19T02:54:31.957Z,2.31
2024-03-19T02:57:02.399Z,2.33
2024-03-19T02:59:32.893Z,2.31
2024-03-19T03:02:03.246Z,2.30
2024-03-19T03:04:33.689Z,2.30
2024-03-19T03:07:04.383Z,2.29
2024-03-19T03:09:34.888Z,2.28
2024-03-19T03:12:07.498Z,2.28
2024-03-19T03:14:37.930Z,2.27
2024-03-19T03:17:08.344Z,2.33
2024-03-19T03:19:38.897Z,2.35
2024-03-19T03:22:09.344Z,2.36
2024-03-19T03:24:39.797Z,2.37
2024-03-19T03:27:10.203Z,2.37
2024-03-19T03:29:41.238Z,2.40
2024-03-19T03:32:11.964Z,2.44
2024-03-19T03:34:42.475Z,2.43
2024-03-19T03:37:15.845Z,2.47
2024-03-19T03:39:49.026Z,2.51
2024-03-19T03:42:19.935Z,2.48
2024-03-19T03:44:50.523Z,2.47
2024-03-19T03:47:21.384Z,2.51
2024-03-19T03:49:51.796Z,2.55
2024-03-19T03:52:22.388Z,2.58
2024-03-19T03:54:53.408Z,2.62
2024-03-19T03:57:22.176Z,2.68
2024-03-19T03:59:52.798Z,2.66
2024-03-19T04:02:23.402Z,2.65
2024-03-19T04:04:55.369Z,2.56
2024-03-19T04:07:25.897Z,2.56
2024-03-19T04:09:56.414Z,2.57
2024-03-19T04:12:27.449Z,2.63
2024-03-19T04:14:56.407Z,2.65
2024-03-19T04:17:29.252Z,2.66
2024-03-19T04:20:01.958Z,2.71
2024-03-19T04:22:32.749Z,2.77
2024-03-19T04:25:03.665Z,2.81
2024-03-19T04:27:34.186Z,2.79
2024-03-19T04:30:05.028Z,2.84
2024-03-19T04:32:35.837Z,2.90
2024-03-19T04:35:07.233Z,2.91
2024-03-19T04:37:37.575Z,2.90
2024-03-19T04:40:10.551Z,2.84
2024-03-19T04:42:41.264Z,2.85
2024-03-19T04:45:13.209Z,2.83
2024-03-19T04:47:44.079Z,2.73
2024-03-19T04:50:14.409Z,2.60
2024-03-19T04:52:44.817Z,2.57
2024-03-19T04:55:15.956Z,2.58
2024-03-19T04:57:44.790Z,2.52
2024-03-19T05:00:19.428Z,2.39
2024-03-19T05:02:49.986Z,2.27
2024-03-19T05:05:20.415Z,2.26
2024-03-19T05:07:50.975Z,2.24
2024-03-19T05:10:21.525Z,2.25
2024-03-19T05:12:52.685Z,2.25
2024-03-19T05:15:23.084Z,2.18
2024-03-19T05:17:53.632Z,2.11
2024-03-19T05:20:24.178Z,2.08
2024-03-19T05:22:54.523Z,2.09
2024-03-19T05:25:24.991Z,2.09
2024-03-19T05:27:55.647Z,2.15
2024-03-19T05:30:27.170Z,2.19
2024-03-19T05:32:57.744Z,2.17
2024-03-19T05:35:28.035Z,2.21
2024-03-19T05:37:58.450Z,2.15
2024-03-19T05:40:28.880Z,2.14
2024-03-19T05:42:59.251Z,2.15
2024-03-19T05:45:29.676Z,2.18
2024-03-19T05:48:00.239Z,2.23
2024-03-19T05:50:31.126Z,2.31
2024-03-19T05:53:02.330Z,2.34
2024-03-19T05:55:31.267Z,2.33
2024-03-19T05:58:01.610Z,2.33
2024-03-19T06:00:32.073Z,2.35
2024-03-19T06:03:02.454Z,2.42
2024-03-19T06:05:39.518Z,2.48
2024-03-19T06:08:31.542Z,2.52
2024-03-19T06:11:02.040Z,2.52
2024-03-19T06:13:34.776Z,2.52
2024-03-19T06:16:08.019Z,2.49
2024-03-19T06:18:39.245Z,2.50
2024-03-19T06:21:09.624Z,2.50
2024-03-19T06:23:40.538Z,2.60
2024-03-19T06:26:11.116Z,2.69
2024-03-19T06:28:41.464Z,2.75
2024-03-19T06:31:12.116Z,2.89
2024-03-19T06:33:42.812Z,2.98
2024-03-19T06:36:13.283Z,3.07
2024-03-19T06:38:43.694Z,3.15
2024-03-19T06:41:14.892Z,3.29
2024-03-19T06:43:43.722Z,3.42
2024-03-19T06:46:14.002Z,3.48
2024-03-19T06:48:44.676Z,3.58
2024-03-19T06:51:15.303Z,3.70
2024-03-19T06:53:46.435Z,3.83
2024-03-19T06:56:17.176Z,3.94
2024-03-19T06:58:48.696Z,4.08
2024-03-19T07:01:19.577Z,4.18
2024-03-19T07:03:56.607Z,4.26
2024-03-19T07:06:33.266Z,4.35
2024-03-19T07:09:03.730Z,4.48
2024-03-19T07:11:34.016Z,4.62
2024-03-19T07:14:05.189Z,4.69
2024-03-19T07:16:34.003Z,4.69
2024-03-19T07:19:04.572Z,4.71
2024-03-19T07:21:35.424Z,4.71
2024-03-19T07:24:07.399Z,4.82
2024-03-19T07:26:37.841Z,4.93
2024-03-19T07:29:08.810Z,4.92
2024-03-19T07:31:39.429Z,5.01
2024-03-19T07:34:09.899Z,5.17
2024-03-19T07:36:41.603Z,5.29
2024-03-19T07:39:12.581Z,5.31
2024-03-19T07:41:43.392Z,5.29
2024-03-19T07:44:13.846Z,5.37
2024-03-19T07:46:45.022Z,5.47
2024-03-19T07:49:13.918Z,5.64
2024-03-19T07:51:44.321Z,5.70
2024-03-19T07:54:14.993Z,5.73
2024-03-19T07:56:45.562Z,5.78
2024-03-19T07:59:16.078Z,5.90
2024-03-19T08:01:46.583Z,6.05
2024-03-19T08:04:17.283Z,6.20
2024-03-19T08:06:47.946Z,6.23
2024-03-19T08:09:19.978Z,6.28
2024-03-19T08:11:50.683Z,6.45
2024-03-19T08:14:24.693Z,6.49
2024-03-19T08:16:55.233Z,6.46
2024-03-19T08:19:25.481Z,6.47
2024-03-19T08:21:55.908Z,6.61
2024-03-19T08:24:26.716Z,6.77
2024-03-19T08:26:57.180Z,6.92
2024-03-19T08:29:28.325Z,6.77
2024-03-19T08:31:58.703Z,6.63
2024-03-19T08:34:29.298Z,6.68
2024-03-19T08:36:59.818Z,6.91
2024-03-19T08:39:30.421Z,7.13
2024-03-19T08:42:05.603Z,7.38
2024-03-19T08:44:36.764Z,7.68
2024-03-19T08:47:07.725Z,7.79
2024-03-19T08:49:38.314Z,8.06
2024-03-19T08:52:10.624Z,8.34
2024-03-19T08:54:41.125Z,8.60
2024-03-19T08:57:32.493Z,8.89
2024-03-19T09:00:02.962Z,9.01
2024-03-19T09:02:33.418Z,8.92
2024-03-19T09:05:04.043Z,8.76
2024-03-19T09:07:35.384Z,8.67
2024-03-19T09:10:08.319Z,8.58
2024-03-19T09:12:39.023Z,8.43
2024-03-19T09:15:11.717Z,8.33
2024-03-19T09:17:42.709Z,8.39
2024-03-19T09:20:13.205Z,8.47
2024-03-19T09:22:43.539Z,8.60
2024-03-19T09:25:14.177Z,8.63
2024-03-19T09:27:44.577Z,8.59
2024-03-19T09:30:17.049Z,8.75
2024-03-19T09:32:47.484Z,8.84
2024-03-19T09:35:18.268Z,8.91
2024-03-19T09:37:48.676Z,9.03
2024-03-19T09:40:19.354Z,9.09
2024-03-19T09:42:51.249Z,9.11
2024-03-19T09:45:28.232Z,9.07
2024-03-19T09:47:58.932Z,9.00
2024-03-19T09:50:29.524Z,8.95
2024-03-19T09:53:00.032Z,9.06
2024-03-19T09:55:30.665Z,9.42
2024-03-19T09:58:02.203Z,9.81
2024-03-19T10:00:33.180Z,10.12
2024-03-19T10:03:03.732Z,10.39
2024-03-19T10:05:41.995Z,10.55
2024-03-19T10:08:14.490Z,10.48
2024-03-19T10:10:48.366Z,10.49
2024-03-19T10:13:18.646Z,10.44
2024-03-19T10:15:53.171Z,10.32
2024-03-19T10:18:24.481Z,10.19
2024-03-19T10:20:59.107Z,10.14
2024-03-19T10:23:31.058Z,10.16
2024-03-19T10:26:01.380Z,10.11
2024-03-19T10:28:31.885Z,10.12
2024-03-19T10:31:02.682Z,10.39
2024-03-19T10:33:34.004Z,10.57
2024-03-19T10:36:05.476Z,10.32
2024-03-19T10:38:37.299Z,10.41
2024-03-19T10:41:19.109Z,10.67
2024-03-19T10:43:51.032Z,10.85
2024-03-19T10:46:22.471Z,10.92
2024-03-19T10:49:03.463Z,10.93
2024-03-19T10:51:33.258Z,10.92
2024-03-19T10:54:04.717Z,11.03
2024-03-19T10:56:36.175Z,11.29
2024-03-19T10:59:09.386Z,11.47
2024-03-19T11:01:47.622Z,11.65
2024-03-19T11:04:23.773Z,11.96
2024-03-19T11:06:57.893Z,12.13
2024-03-19T11:09:30.396Z,12.32
2024-03-19T11:12:02.690Z,12.44
2024-03-19T11:14:34.241Z,12.40
2024-03-19T11:17:17.978Z,12.13
2024-03-19T11:19:55.425Z,11.75
2024-03-19T11:22:26.165Z,11.34
2024-03-19T11:25:00.180Z,11.02
2024-03-19T11:27:36.116Z,10.70
2024-03-19T11:30:17.941Z,10.52
2024-03-19T11:32:49.835Z,10.37
2024-03-19T11:35:22.106Z,10.44
2024-03-19T11:37:53.313Z,10.59
2024-03-19T11:40:24.151Z,10.48
2024-03-19T11:42:54.746Z,10.58
2024-03-19T11:45:26.052Z,10.85
2024-03-19T11:47:58.785Z,11.06
2024-03-19T11:50:29.289Z,11.19
2024-03-19T11:53:01.173Z,11.37
2024-03-19T11:55:33.190Z,11.56
2024-03-19T11:58:03.841Z,11.62
2024-03-19T12:00:34.266Z,11.54
2024-03-19T12:03:06.876Z,11.30
2024-03-19T12:05:37.283Z,11.00
2024-03-19T12:08:15.200Z,10.77
2024-03-19T12:10:46.509Z,10.69
2024-03-19T12:13:18.052Z,10.85
2024-03-19T12:15:48.587Z,10.92
2024-03-19T12:18:19.278Z,10.96
2024-03-19T12:20:50.465Z,11.03
2024-03-19T12:23:20.715Z,11.06
2024-03-19T12:25:51.274Z,11.12
2024-03-19T12:28:21.697Z,11.15
2024-03-19T12:30:53.019Z,11.18
2024-03-19T12:33:26.257Z,11.21
2024-03-19T12:35:58.417Z,11.21
2024-03-19T12:38:30.317Z,11.02
2024-03-19T12:41:00.813Z,10.93
2024-03-19T12:43:31.355Z,10.94
2024-03-19T12:46:01.731Z,10.85
2024-03-19T12:48:32.235Z,10.87
2024-03-19T12:51:02.932Z,10.82
2024-03-19T12:53:33.256Z,10.48
2024-03-19T12:56:03.777Z,10.46
2024-03-19T12:58:34.557Z,10.53
2024-03-19T13:01:05.216Z,10.60
2024-03-19T13:03:35.630Z,10.74
2024-03-19T13:06:06.963Z,10.85
2024-03-19T13:08:39.400Z,10.97
2024-03-19T13:11:10.093Z,11.06
2024-03-19T13:13:40.670Z,11.13
2024-03-19T13:16:11.166Z,11.22
2024-03-19T13:18:42.394Z,11.20
2024-03-19T13:21:12.885Z,11.14
2024-03-19T13:23:43.543Z,11.04
2024-03-19T13:26:17.131Z,11.00
2024-03-19T13:28:47.500Z,11.04
2024-03-19T13:31:19.631Z,11.14
2024-03-19T13:33:53.199Z,11.08
2024-03-19T13:36:23.719Z,10.99
2024-03-19T13:38:56.361Z,10.98
2024-03-19T13:41:26.993Z,11.03
2024-03-19T13:43:58.797Z,10.97
2024-03-19T13:46:29.355Z,10.91
2024-03-19T13:48:59.871Z,10.80
2024-03-19T13:51:32.035Z,10.81
2024-03-19T13:54:05.801Z,10.90
2024-03-19T13:56:36.963Z,11.00
2024-03-19T13:59:08.898Z,11.03
2024-03-19T14:01:39.289Z,11.01
2024-03-19T14:04:12.721Z,11.01
2024-03-19T14:06:43.804Z,11.05
2024-03-19T14:09:13.492Z,11.09
2024-03-19T14:11:43.894Z,11.08
2024-03-19T14:14:14.272Z,11.05
2024-03-19T14:16:44.578Z,11.00
2024-03-19T14:19:15.507Z,11.00
2024-03-19T14:21:44.258Z,11.00
2024-03-19T14:24:14.720Z,10.96
2024-03-19T14:26:45.138Z,10.85
2024-03-19T14:29:35.753Z,10.85
2024-03-19T14:32:09.979Z,10.91
2024-03-19T14:34:40.359Z,10.92
2024-03-19T14:37:10.696Z,10.88
2024-03-19T14:40:01.841Z,10.86
2024-03-19T14:42:32.923Z,10.84
2024-03-19T14:45:03.785Z,10.85
2024-03-19T14:47:34.395Z,10.88
2024-03-19T14:50:05.998Z,10.87
2024-03-19T14:52:36.807Z,10.81
2024-03-19T14:55:11.065Z,10.82
2024-03-19T14:57:42.730Z,10.83
2024-03-19T15:00:15.179Z,10.75
2024-03-19T15:02:46.117Z,10.70
2024-03-19T15:05:16.920Z,10.57
2024-03-19T15:07:47.428Z,10.49
2024-03-19T15:10:18.130Z,10.39
2024-03-19T15:12:49.358Z,10.30
2024-03-19T15:15:20.068Z,10.21
2024-03-19T15:17:50.616Z,10.10
2024-03-19T15:20:20.932Z,10.00
2024-03-19T15:22:51.346Z,10.02
2024-03-19T15:25:23.912Z,10.02
2024-03-19T15:27:54.366Z,10.06
2024-03-19T15:30:25.102Z,10.07
2024-03-19T15:32:55.730Z,10.08
2024-03-19T15:35:26.457Z,10.09
2024-03-19T15:37:56.828Z,10.01
2024-03-19T15:40:27.495Z,9.99
2024-03-19T15:42:57.898Z,10.01
2024-03-19T15:45:30.353Z,9.95
2024-03-19T15:48:03.065Z,9.82
2024-03-19T15:50:33.457Z,9.77
2024-03-19T15:53:04.338Z,9.68
2024-03-19T15:55:33.402Z,9.59
2024-03-19T15:58:04.408Z,9.48
2024-03-19T16:00:34.869Z,9.35
2024-03-19T16:03:07.368Z,9.15
2024-03-19T16:05:38.046Z,9.03
2024-03-19T16:08:15.243Z,8.89
2024-03-19T16:10:45.629Z,8.77
2024-03-19T16:13:16.113Z,8.67
2024-03-19T16:15:46.689Z,8.60
2024-03-19T16:18:17.685Z,8.54
2024-03-19T16:20:47.939Z,8.48
2024-03-19T16:23:18.436Z,8.41
2024-03-19T16:25:49.019Z,8.35
2024-03-19T16:28:20.101Z,8.28
2024-03-19T16:30:48.870Z,8.20
2024-03-19T16:33:19.507Z,8.09
2024-03-19T16:35:49.856Z,8.02
2024-03-19T16:38:20.254Z,7.96
2024-03-19T16:40:50.544Z,7.88
2024-03-19T16:43:21.098Z,7.82
2024-03-19T16:45:52.951Z,7.77
2024-03-19T16:48:23.679Z,7.72
2024-03-19T16:50:54.184Z,7.66
2024-03-19T16:53:24.582Z,7.60
2024-03-19T16:55:55.300Z,7.54
2024-03-19T16:58:27.649Z,7.46
2024-03-19T17:00:58.386Z,7.38
2024-03-19T17:03:28.696Z,7.28
2024-03-19T17:06:02.459Z,7.16
2024-03-19T17:08:33.330Z,7.11
2024-03-19T17:11:04.022Z,7.06
2024-03-19T17:13:38.968Z,7.02
2024-03-19T17:16:11.407Z,6.97
2024-03-19T17:18:42.341Z,6.92
2024-03-19T17:21:12.939Z,6.87
2024-03-19T17:23:43.438Z,6.82
2024-03-19T17:26:16.072Z,6.76
2024-03-19T17:28:46.476Z,6.72
2024-03-19T17:31:16.953Z,6.68
2024-03-19T17:33:47.524Z,6.64
2024-03-19T17:36:18.367Z,6.59
2024-03-19T17:38:49.501Z,6.55
2024-03-19T17:41:20.304Z,6.51
2024-03-19T17:43:50.671Z,6.48
2024-03-19T17:46:20.992Z,6.45
2024-03-19T17:48:54.788Z,6.38
2024-03-19T17:51:25.335Z,6.32
2024-03-19T17:53:56.262Z,6.28
2024-03-19T17:56:26.892Z,6.21
2024-03-19T17:58:57.501Z,6.12
2024-03-19T18:01:27.850Z,6.03
2024-03-19T18:03:58.234Z,5.94
2024-03-19T18:06:29.494Z,5.87
2024-03-19T18:09:00.895Z,5.84
2024-03-19T18:11:31.793Z,5.79
2024-03-19T18:14:02.309Z,5.71
2024-03-19T18:16:33.483Z,5.62
2024-03-19T18:19:03.972Z,5.57
2024-03-19T18:21:37.361Z,5.55
2024-03-19T18:24:09.508Z,5.49
2024-03-19T18:26:39.920Z,5.42
2024-03-19T18:29:10.642Z,5.33
2024-03-19T18:31:44.628Z,5.28
2024-03-19T18:34:15.439Z,5.24
2024-03-19T18:36:46.304Z,5.20
2024-03-19T18:39:17.455Z,5.15
2024-03-19T18:41:48.009Z,5.14
2024-03-19T18:44:18.840Z,5.09
2024-03-19T18:46:49.633Z,4.99
2024-03-19T18:49:20.051Z,4.92
2024-03-19T18:51:50.395Z,4.93
2024-03-19T18:54:20.903Z,4.93
2024-03-19T18:56:51.366Z,4.88
2024-03-19T18:59:21.705Z,4.82
2024-03-19T19:01:51.989Z,4.78
2024-03-19T19:04:22.874Z,4.71
2024-03-19T19:06:53.721Z,4.71
2024-03-19T19:09:24.276Z,4.69
2024-03-19T19:11:54.699Z,4.56
2024-03-19T19:14:25.089Z,4.46
2024-03-19T19:16:55.430Z,4.39
2024-03-19T19:19:25.732Z,4.31
2024-03-19T19:22:01.965Z,4.28
2024-03-19T19:24:32.384Z,4.25
2024-03-19T19:27:02.832Z,4.17
2024-03-19T19:29:33.600Z,4.12
2024-03-19T19:32:04.162Z,-22.33
2024-03-19T19:34:34.588Z,4.08
2024-03-19T19:37:05.354Z,4.07
2024-03-19T19:39:35.855Z,4.07
2024-03-19T19:42:07.143Z,4.02
2024-03-19T19:44:37.524Z,3.94
2024-03-19T19:47:09.653Z,3.85
2024-03-19T19:49:40.167Z,3.78
2024-03-19T19:52:11.062Z,3.72
2024-03-19T19:54:41.883Z,3.72
2024-03-19T19:57:12.681Z,3.72
2024-03-19T19:59:43.241Z,3.68
2024-03-19T20:02:17.520Z,3.63
2024-03-19T20:04:48.402Z,3.57
2024-03-19T20:07:19.054Z,3.54
2024-03-19T20:09:49.400Z,3.55
2024-03-19T20:12:19.797Z,3.57
2024-03-19T20:14:50.244Z,3.58
2024-03-19T20:17:20.724Z,3.60
2024-03-19T20:19:51.166Z,3.61
2024-03-19T20:22:21.510Z,3.65
2024-03-19T20:24:57.104Z,3.66
2024-03-19T20:27:34.477Z,3.64
2024-03-19T20:30:08.197Z,3.57
2024-03-19T20:32:38.726Z,3.54
2024-03-19T20:35:11.763Z,3.54
2024-03-19T20:37:42.356Z,3.55
2024-03-19T20:40:16.119Z,3.47
2024-03-19T20:42:47.552Z,3.35
2024-03-19T20:45:17.996Z,3.31
2024-03-19T20:47:49.292Z,3.29
2024-03-19T20:50:18.220Z,3.26
2024-03-19T20:52:48.602Z,3.23
2024-03-19T20:55:19.042Z,3.26
2024-03-19T20:57:49.631Z,3.25
2024-03-19T21:00:21.771Z,3.23
2024-03-19T21:02:52.103Z,3.21
2024-03-19T21:05:22.551Z,3.16
2024-03-19T21:07:53.077Z,3.15
2024-03-19T21:10:23.617Z,3.21
2024-03-19T21:12:54.110Z,3.22
2024-03-19T21:15:25.179Z,3.12
2024-03-19T21:17:54.029Z,3.04
2024-03-19T21:20:24.790Z,2.97
2024-03-19T21:22:55.185Z,2.91
2024-03-19T21:25:25.860Z,2.85
2024-03-19T21:27:56.307Z,2.78
2024-03-19T21:30:27.220Z,2.75
2024-03-19T21:32:57.716Z,2.70
2024-03-19T21:35:28.042Z,2.66
2024-03-19T21:37:58.657Z,2.62
2024-03-19T21:40:31.262Z,2.60
2024-03-19T21:43:01.697Z,2.59
2024-03-19T21:45:32.214Z,2.55
2024-03-19T21:48:03.038Z,2.46
2024-03-19T21:50:33.641Z,2.41
2024-03-19T21:53:04.306Z,2.38
2024-03-19T21:55:34.789Z,2.37
2024-03-19T21:58:05.687Z,2.37
2024-03-19T22:00:36.247Z,2.35
2024-03-19T22:03:08.483Z,2.36
2024-03-19T22:05:39.723Z,2.45
2024-03-19T22:08:14.782Z,2.55
2024-03-19T22:10:47.629Z,2.57
2024-03-19T22:13:18.461Z,2.50
2024-03-19T22:15:55.564Z,2.51
2024-03-19T22:18:25.871Z,2.49
2024-03-19T22:20:56.271Z,2.44
2024-03-19T22:23:26.702Z,2.34
2024-03-19T22:25:57.131Z,2.26
2024-03-19T22:28:27.722Z,2.16
2024-03-19T22:30:58.093Z,2.07
2024-03-19T22:33:28.928Z,2.06
2024-03-19T22:36:00.558Z,2.06
2024-03-19T22:38:31.000Z,2.03
2024-03-19T22:41:01.618Z,2.00
2024-03-19T22:43:31.906Z,1.96
2024-03-19T22:46:02.441Z,1.97
2024-03-19T22:48:32.767Z,2.00
2024-03-19T22:51:03.246Z,1.99
2024-03-19T22:53:33.514Z,2.04
2024-03-19T22:56:04.044Z,2.09
2024-03-19T22:58:34.710Z,2.01
2024-03-19T23:02:57.209Z,1.95
2024-03-19T23:05:33.833Z,1.87
2024-03-19T23:08:04.486Z,1.82
2024-03-19T23:10:34.921Z,1.78
2024-03-19T23:13:06.817Z,1.77
2024-03-19T23:15:38.533Z,1.71
2024-03-19T23:18:09.247Z,1.67
2024-03-19T23:20:39.672Z,1.59
2024-03-19T23:23:10.117Z,1.53
2024-03-19T23:25:40.618Z,1.47
2024-03-19T23:28:11.084Z,1.49
2024-03-19T23:30:41.903Z,1.51
2024-03-19T23:33:12.495Z,1.55
2024-03-19T23:35:43.264Z,1.67
2024-03-19T23:38:13.754Z,1.72
2024-03-19T23:40:44.007Z,1.66
2024-03-19T23:43:14.567Z,1.61
2024-03-19T23:45:45.398Z,1.57
2024-03-19T23:48:15.939Z,1.53
2024-03-19T23:50:46.358Z,1.50
2024-03-19T23:53:16.915Z,1.47
2024-03-19T23:55:47.834Z,1.46
2024-03-19T23:58:18.193Z,1.43
